Time;durP1;ratioP1;P1;durP2;ratioP2;P2;SDS_P1;SDS_P2;PMS_P1;PMS_P2;Temp;Humidity;BMP_temperature;BMP_pressure;BME280_temperature;BME280_humidity;BME280_pressure;Samples;Min_cycle;Max_cycle;Signal;HPM_P1;HPM_P2
2021/05/07 00:01:32;;;;;;;3.20;2.63;;;;;;;17.09;44.79;94905.16;5071436;28;21038;-70
2021/05/07 00:04:01;;;;;;;9.33;3.13;;;;;;;17.19;44.90;94918.97;5071066;28;20454;-65
2021/05/07 00:06:29;;;;;;;6.90;3.23;;;;;;;16.62;45.56;94914.28;5071640;28;20426;-67
2021/05/07 00:08:55;;;;;;;7.83;3.20;;;;;;;16.40;46.42;94916.75;5071246;28;20462;-68
2021/05/07 00:11:22;;;;;;;4.93;3.37;;;;;;;16.72;45.93;94914.06;5071629;28;20477;-63
2021/05/07 00:13:49;;;;;;;6.17;3.10;;;;;;;16.88;45.26;94912.72;5071478;28;20884;-64
2021/05/07 00:16:16;;;;;;;5.77;3.10;;;;;;;16.97;45.73;94916.25;5071986;28;20444;-63
2021/05/07 00:18:43;;;;;;;7.67;3.30;;;;;;;16.95;45.25;94907.03;5071104;28;20540;-65
2021/05/07 00:21:11;;;;;;;4.60;3.27;;;;;;;16.92;45.26;94908.41;5071399;28;20434;-65
2021/05/07 00:23:38;;;;;;;4.33;3.50;;;;;;;17.01;45.18;94909.28;5070948;28;20446;-64
2021/05/07 00:26:04;;;;;;;6.73;3.77;;;;;;;16.88;45.61;94915.34;5071481;28;20441;-66
2021/05/07 00:28:31;;;;;;;5.37;3.40;;;;;;;16.84;46.06;94901.13;5071022;28;20441;-66
2021/05/07 00:30:57;;;;;;;6.70;3.27;;;;;;;16.94;45.92;94900.16;5070644;28;21109;-66
2021/05/07 00:33:24;;;;;;;8.77;3.70;;;;;;;16.37;46.97;94903.31;5071207;28;20446;-65
2021/05/07 00:35:50;;;;;;;6.00;3.10;;;;;;;16.34;47.01;94904.69;5071198;28;20511;-68
2021/05/07 00:38:17;;;;;;;7.13;3.70;;;;;;;16.24;47.15;94912.75;5070826;28;20438;-66
2021/05/07 00:40:44;;;;;;;5.23;3.60;;;;;;;15.62;49.36;94906.06;5071102;28;20430;-64
2021/05/07 00:43:12;;;;;;;8.50;3.90;;;;;;;15.89;48.47;94911.47;5052710;28;20446;-65
2021/05/07 00:45:39;;;;;;;6.47;3.57;;;;;;;16.10;48.09;94891.59;5070956;28;20529;-69
2021/05/07 00:48:13;;;;;;;7.33;3.67;;;;;;;16.39;47.18;94898.50;5052228;28;20442;-65
2021/05/07 00:50:42;;;;;;;7.87;3.83;;;;;;;16.11;48.10;94908.25;5071067;28;20484;-63
2021/05/07 00:53:12;;;;;;;6.17;3.67;;;;;;;16.02;48.63;94894.13;5070482;28;20469;-63
2021/05/07 00:55:39;;;;;;;10.77;3.43;;;;;;;16.43;47.56;94904.78;5053006;28;20530;-67
2021/05/07 00:58:08;;;;;;;5.37;3.63;;;;;;;16.35;46.81;94908.88;5070382;28;20467;-63
2021/05/07 01:00:37;;;;;;;8.07;3.60;;;;;;;16.32;47.62;94904.19;5052719;28;20457;-68
2021/05/07 01:03:04;;;;;;;8.20;4.00;;;;;;;15.94;48.43;94907.97;5052240;28;20499;-67
2021/05/07 01:05:31;;;;;;;6.93;3.63;;;;;;;15.99;48.43;94892.03;5071005;28;20956;-67
2021/05/07 01:07:58;;;;;;;6.53;3.93;;;;;;;16.01;48.31;94906.53;5052448;28;20438;-65
2021/05/07 01:10:26;;;;;;;11.73;4.00;;;;;;;16.18;48.29;94892.78;5069987;28;20485;-69
2021/05/07 01:12:55;;;;;;;5.17;3.57;;;;;;;16.26;47.75;94899.28;5052211;28;20477;-65
2021/05/07 01:15:42;;;;;;;6.27;3.57;;;;;;;16.31;47.23;94907.91;5052669;28;20523;-66
2021/05/07 01:18:10;;;;;;;7.67;4.10;;;;;;;16.41;47.69;94906.94;5070234;28;20442;-68
2021/05/07 01:20:38;;;;;;;7.93;4.07;;;;;;;16.42;47.34;94900.59;5075002;28;20466;-65
2021/05/07 01:23:08;;;;;;;5.50;3.50;;;;;;;16.48;47.87;94902.06;5070029;28;20433;-69
2021/05/07 01:25:37;;;;;;;4.77;3.70;;;;;;;16.40;48.20;94898.22;5070612;28;20968;-67
2021/05/07 01:28:06;;;;;;;7.53;4.00;;;;;;;16.45;47.45;94903.44;5052940;28;20434;-66
2021/05/07 01:30:38;;;;;;;6.53;3.53;;;;;;;16.47;48.00;94898.66;5070317;28;20527;-63
2021/05/07 01:33:07;;;;;;;8.60;3.73;;;;;;;16.44;48.23;94906.38;5070162;28;20430;-62
2021/05/07 01:35:36;;;;;;;4.80;3.50;;;;;;;16.31;47.98;94907.91;5052537;28;21002;-62
2021/05/07 01:38:08;;;;;;;4.53;3.80;;;;;;;16.44;48.18;94901.84;5051842;28;20998;-63
2021/05/07 01:40:37;;;;;;;6.97;3.80;;;;;;;15.99;48.61;94905.25;5070154;28;20445;-68
2021/05/07 01:43:04;;;;;;;7.07;4.30;;;;;;;15.97;49.03;94902.91;5069192;28;20434;-66
2021/05/07 01:45:33;;;;;;;10.23;4.33;;;;;;;15.65;50.23;94896.78;5070593;28;20562;-71
2021/05/07 01:48:01;;;;;;;10.97;4.37;;;;;;;15.38;50.20;94901.91;5052215;28;20434;-64
2021/05/07 01:50:32;;;;;;;7.60;4.40;;;;;;;15.58;49.62;94902.44;5051854;28;20470;-66
2021/05/07 01:52:59;;;;;;;8.60;4.50;;;;;;;15.39;50.58;94900.81;5070086;28;20441;-68
2021/05/07 01:55:35;;;;;;;7.97;5.03;;;;;;;15.46;50.11;94906.56;5052126;28;20446;-67
2021/05/07 01:58:06;;;;;;;11.03;5.13;;;;;;;15.52;49.71;94905.41;5069986;28;21169;-64
2021/05/07 02:00:35;;;;;;;8.87;4.93;;;;;;;15.68;49.63;94893.56;5052029;28;20452;-66
2021/05/07 02:03:04;;;;;;;8.73;5.20;;;;;;;15.69;50.22;94893.28;5051910;28;20444;-64
2021/05/07 02:05:38;;;;;;;12.70;5.93;;;;;;;15.66;49.04;94895.69;5052299;28;21033;-70
2021/05/07 02:08:05;;;;;;;15.70;5.80;;;;;;;15.72;49.71;94894.56;5069455;28;20441;-66
2021/05/07 02:10:34;;;;;;;11.93;5.70;;;;;;;15.80;49.18;94901.84;5051603;28;20494;-64
2021/05/07 02:13:06;;;;;;;12.00;5.80;;;;;;;15.77;48.56;94891.84;5069693;28;20553;-66
2021/05/07 02:15:33;;;;;;;11.33;5.70;;;;;;;15.70;49.26;94886.94;5052187;28;20967;-65
2021/05/07 02:18:01;;;;;;;9.07;5.97;;;;;;;15.80;49.32;94880.72;5051556;28;20456;-65
2021/05/07 02:20:29;;;;;;;8.47;5.47;;;;;;;15.66;48.89;94890.41;5069599;28;20466;-66
2021/05/07 02:22:57;;;;;;;14.97;5.93;;;;;;;15.62;49.74;94886.81;5069575;28;21014;-67
2021/05/07 02:25:25;;;;;;;9.40;5.63;;;;;;;15.65;49.79;94886.22;5069870;28;20438;-66
2021/05/07 02:27:53;;;;;;;9.73;5.40;;;;;;;15.56;50.21;94875.53;5069248;28;20824;-67
2021/05/07 02:30:28;;;;;;;7.47;5.20;;;;;;;15.32;50.51;94881.91;5051863;28;20470;-65
2021/05/07 02:32:55;;;;;;;9.07;5.10;;;;;;;15.35;50.79;94879.47;5051180;28;20446;-66
2021/05/07 02:35:24;;;;;;;7.80;4.97;;;;;;;15.45;49.90;94879.38;5069790;28;20830;-65
2021/05/07 02:37:52;;;;;;;10.30;5.07;;;;;;;15.49;50.23;94884.88;5051326;28;20438;-67
2021/05/07 02:40:19;;;;;;;10.17;5.20;;;;;;;15.41;49.79;94872.31;5051683;28;20533;-64
2021/05/07 02:42:45;;;;;;;9.70;4.87;;;;;;;15.52;50.09;94877.16;5069963;28;20442;-67
2021/05/07 02:45:14;;;;;;;8.63;5.23;;;;;;;15.63;49.67;94885.72;5055805;28;20510;-64
2021/05/07 02:47:41;;;;;;;6.73;5.00;;;;;;;15.56;50.40;94890.59;5051186;28;20446;-63
2021/05/07 02:50:11;;;;;;;9.57;5.37;;;;;;;15.64;49.11;94887.28;5069567;28;20434;-66
2021/05/07 02:52:40;;;;;;;8.63;5.80;;;;;;;15.58;49.89;94893.72;5051114;28;20503;-66
2021/05/07 02:55:09;;;;;;;9.37;5.00;;;;;;;15.58;49.58;94894.53;5055024;28;20456;-64
2021/05/07 02:57:37;;;;;;;8.57;5.20;;;;;;;15.58;49.74;94889.25;5072426;28;20980;-64
2021/05/07 03:00:06;;;;;;;7.60;4.63;;;;;;;15.57;49.90;94895.56;5054926;28;20867;-65
2021/05/07 03:02:33;;;;;;;6.90;4.87;;;;;;;15.50;50.24;94902.28;5072704;28;20459;-66
2021/05/07 03:04:59;;;;;;;12.57;4.77;;;;;;;15.37;50.41;94887.09;5054997;28;20460;-67
2021/05/07 03:07:26;;;;;;;11.13;5.03;;;;;;;15.46;50.32;94890.72;5072593;28;20467;-65
2021/05/07 03:09:52;;;;;;;9.33;5.03;;;;;;;15.34;50.14;94903.53;5072736;28;20486;-64
2021/05/07 03:12:19;;;;;;;8.57;4.70;;;;;;;15.33;50.76;94902.72;5072437;28;20866;-67
2021/05/07 03:14:46;;;;;;;11.03;4.73;;;;;;;15.29;50.85;94906.25;5073163;28;20898;-63
2021/05/07 03:17:13;;;;;;;8.13;5.30;;;;;;;15.19;51.18;94905.31;5072591;28;20515;-67
2021/05/07 03:19:39;;;;;;;11.47;5.17;;;;;;;15.20;51.47;94908.72;5072348;28;20430;-66
2021/05/07 03:22:06;;;;;;;10.20;5.57;;;;;;;14.95;52.09;94909.81;5072427;28;20429;-65
2021/05/07 03:24:32;;;;;;;14.27;5.90;;;;;;;15.17;51.48;94910.06;5072486;28;20430;-66
2021/05/07 03:26:59;;;;;;;9.37;5.40;;;;;;;15.19;51.27;94913.22;5054153;28;20847;-65
2021/05/07 03:29:25;;;;;;;13.63;6.53;;;;;;;15.05;50.95;94911.56;5072210;28;20545;-68
2021/05/07 03:31:51;;;;;;;14.77;6.60;;;;;;;15.19;50.68;94918.50;5072623;28;20493;-67
2021/05/07 03:34:18;;;;;;;17.03;6.27;;;;;;;15.18;50.91;94927.47;5072733;28;20542;-68
2021/05/07 03:36:45;;;;;;;11.10;6.40;;;;;;;14.94;51.16;94913.50;5072734;28;20477;-68
2021/05/07 03:39:11;;;;;;;9.47;6.07;;;;;;;15.15;51.35;94927.25;5071904;28;20802;-66
2021/05/07 03:41:38;;;;;;;15.47;6.10;;;;;;;14.90;50.71;94925.72;5072349;28;20431;-68
2021/05/07 03:44:05;;;;;;;11.40;6.30;;;;;;;15.07;50.99;94936.56;5072228;28;20561;-66
2021/05/07 03:46:31;;;;;;;11.67;6.13;;;;;;;15.13;50.69;94945.22;5073096;28;20438;-66
2021/05/07 03:48:58;;;;;;;12.57;6.67;;;;;;;15.07;50.75;94936.56;5073093;28;20451;-66
2021/05/07 03:51:24;;;;;;;19.47;7.93;;;;;;;15.06;51.18;94945.56;5074022;28;20561;-67
2021/05/07 03:53:50;;;;;;;15.73;7.10;;;;;;;14.91;50.84;94937.81;5074219;28;20441;-63
2021/05/07 03:56:17;;;;;;;9.83;4.87;;;;;;;14.50;50.90;94941.94;5072042;28;20434;-66
2021/05/07 03:58:43;;;;;;;8.43;3.97;;;;;;;14.76;50.04;94948.53;5071491;28;20446;-65
2021/05/07 04:01:09;;;;;;;9.13;3.77;;;;;;;14.85;50.08;94948.72;5071925;28;20439;-63
2021/05/07 04:03:37;;;;;;;13.13;3.87;;;;;;;14.97;49.37;94947.25;5071183;28;20434;-68
2021/05/07 04:06:06;;;;;;;9.17;3.80;;;;;;;15.00;49.24;94941.41;5070904;28;20427;-66
2021/05/07 04:08:36;;;;;;;6.70;3.87;;;;;;;15.04;48.83;94942.44;5054543;28;20433;-64
2021/05/07 04:11:23;;;;;;;9.50;4.10;;;;;;;15.11;49.09;94927.03;5067547;28;20486;-68
2021/05/07 04:13:49;;;;;;;8.80;3.60;;;;;;;15.09;48.76;94950.28;5071030;28;20536;-65
2021/05/07 04:16:17;;;;;;;7.47;3.43;;;;;;;14.96;49.04;94955.47;5071396;28;20810;-69
2021/05/07 04:18:43;;;;;;;7.90;3.37;;;;;;;15.06;49.44;94964.03;5071537;28;20492;-67
2021/05/07 04:21:10;;;;;;;8.63;3.97;;;;;;;15.23;49.14;94955.69;5053276;28;20458;-67
2021/05/07 04:23:36;;;;;;;11.17;4.00;;;;;;;15.33;48.76;94960.81;5069588;28;20956;-67
2021/05/07 04:26:03;;;;;;;8.27;4.20;;;;;;;15.32;49.19;94969.03;5069361;28;20438;-64
2021/05/07 04:28:31;;;;;;;8.77;4.03;;;;;;;14.85;50.02;94965.31;5069109;28;20474;-65
2021/05/07 04:30:57;;;;;;;9.73;4.30;;;;;;;15.18;49.82;94964.41;5069497;28;20474;-64
2021/05/07 04:33:24;;;;;;;7.70;4.10;;;;;;;15.23;49.46;94961.75;5069332;28;21196;-68
2021/05/07 04:35:50;;;;;;;10.97;4.27;;;;;;;15.15;49.02;94959.72;5069906;28;20430;-65
2021/05/07 04:38:16;;;;;;;7.13;3.63;;;;;;;15.34;49.10;94966.88;5069735;28;20441;-65
2021/05/07 04:40:43;;;;;;;9.97;3.93;;;;;;;15.40;49.23;94965.78;5069122;28;20492;-63
2021/05/07 04:43:09;;;;;;;11.53;4.23;;;;;;;15.55;49.36;94968.22;5068821;28;20500;-64
2021/05/07 04:45:36;;;;;;;8.60;4.37;;;;;;;15.79;48.83;94968.97;5069164;28;20414;-62
2021/05/07 04:48:14;;;;;;;12.23;4.03;;;;;;;15.66;49.55;94974.94;5065805;28;20430;-66
2021/05/07 04:50:41;;;;;;;11.43;4.57;;;;;;;14.79;50.25;94982.28;5050616;28;20470;-64
2021/05/07 04:53:07;;;;;;;10.17;4.37;;;;;;;15.08;50.17;94985.66;5066865;28;20438;-64
2021/05/07 04:55:34;;;;;;;9.87;4.60;;;;;;;15.39;49.14;94983.47;5070511;28;20504;-65
2021/05/07 04:58:01;;;;;;;74.37;59.57;;;;;;;15.69;49.20;94982.31;5053222;28;20437;-64
2021/05/07 05:00:27;;;;;;;44.97;30.90;;;;;;;15.87;48.72;94970.97;5073615;28;20442;-64
2021/05/07 05:02:54;;;;;;;10.90;7.10;;;;;;;15.86;48.39;94979.97;5073100;28;20434;-66
2021/05/07 05:05:21;;;;;;;28.87;19.07;;;;;;;15.94;48.25;94972.19;5073111;28;20914;-67
2021/05/07 05:07:52;;;;;;;36.90;27.47;;;;;;;16.15;47.96;94977.94;5072312;28;20450;-62
2021/05/07 05:10:19;;;;;;;25.20;17.37;;;;;;;16.20;47.81;94977.88;5065723;28;20454;-65
2021/05/07 05:12:46;;;;;;;24.77;18.17;;;;;;;16.13;47.67;94970.31;5068686;28;20433;-69
2021/05/07 05:15:20;;;;;;;7.90;4.80;;;;;;;16.31;47.89;94976.66;5070150;28;20539;-71
2021/05/07 05:17:49;;;;;;;13.10;4.40;;;;;;;16.41;47.68;94976.47;5069007;28;20441;-73
2021/05/07 05:20:16;;;;;;;9.70;5.33;;;;;;;16.39;47.69;94978.63;5070580;28;20445;-71
2021/05/07 05:22:42;;;;;;;10.10;4.40;;;;;;;16.44;47.76;94981.19;5070128;28;20446;-68
2021/05/07 05:25:09;;;;;;;11.90;4.63;;;;;;;16.40;49.11;94977.56;5070847;28;20445;-67
2021/05/07 05:27:36;;;;;;;7.57;4.37;;;;;;;16.41;49.40;94981.78;5069109;28;20434;-68
2021/05/07 05:30:05;;;;;;;7.47;5.00;;;;;;;16.77;48.18;94985.41;5073988;28;20434;-66
2021/05/07 05:32:31;;;;;;;12.47;4.63;;;;;;;16.79;47.98;94971.91;5075866;28;20489;-68
2021/05/07 05:34:58;;;;;;;9.00;4.57;;;;;;;16.95;47.20;94971.31;5070147;28;20431;-73
2021/05/07 05:37:25;;;;;;;11.13;4.23;;;;;;;16.89;46.39;94972.53;5070015;28;20442;-74
2021/05/07 05:39:52;;;;;;;15.13;4.87;;;;;;;16.88;48.13;94970.94;5070086;28;20422;-72
2021/05/07 05:42:28;;;;;;;6.70;4.70;;;;;;;16.92;46.43;94971.94;5069719;28;20527;-73
2021/05/07 05:44:54;;;;;;;8.27;5.03;;;;;;;17.01;47.08;94970.16;5070028;28;21252;-68
2021/05/07 05:47:21;;;;;;;7.27;4.63;;;;;;;16.83;47.01;94972.88;5069545;28;20484;-68
2021/05/07 05:49:47;;;;;;;7.80;5.00;;;;;;;17.10;46.38;94976.34;5069970;28;20487;-68
2021/05/07 05:52:14;;;;;;;6.63;4.70;;;;;;;16.97;45.90;94969.19;5068909;28;20473;-73
2021/05/07 05:54:40;;;;;;;10.43;4.90;;;;;;;16.92;46.14;94971.13;5069297;28;20450;-68
2021/05/07 05:57:07;;;;;;;11.13;4.63;;;;;;;17.05;45.86;94979.09;5069108;28;20476;-69
2021/05/07 05:59:34;;;;;;;7.20;4.50;;;;;;;17.03;46.55;94973.31;5069882;28;20488;-66
2021/05/07 06:02:00;;;;;;;6.33;4.87;;;;;;;16.93;45.66;94973.47;5069988;28;20947;-72
2021/05/07 06:04:27;;;;;;;619.47;511.80;;;;;;;17.14;46.30;94977.34;5070008;28;20499;-67
2021/05/07 06:06:53;;;;;;;228.97;176.20;;;;;;;17.04;47.36;94990.75;5069323;28;20453;-72
2021/05/07 06:09:20;;;;;;;16.17;8.17;;;;;;;17.29;45.81;94984.22;5069399;28;20493;-74
2021/05/07 06:11:46;;;;;;;7.27;5.10;;;;;;;17.24;45.88;94985.06;5069901;28;20578;-68
2021/05/07 06:14:14;;;;;;;10.10;5.10;;;;;;;17.30;45.65;94987.66;5070417;28;21034;-72
2021/05/07 06:16:43;;;;;;;10.00;5.00;;;;;;;17.49;46.16;94985.69;5069823;28;20472;-73
2021/05/07 06:19:10;;;;;;;8.50;5.03;;;;;;;16.70;46.55;94985.00;5069823;28;20430;-71
2021/05/07 06:21:36;;;;;;;7.77;5.03;;;;;;;17.10;46.04;94979.00;5069979;28;20434;-70
2021/05/07 06:24:04;;;;;;;8.13;5.27;;;;;;;17.51;46.14;94978.22;5069431;28;20441;-71
2021/05/07 06:26:30;;;;;;;11.23;5.53;;;;;;;17.48;47.46;94957.66;5069727;28;21294;-70
2021/05/07 06:28:56;;;;;;;9.13;5.33;;;;;;;17.61;45.43;94962.16;5071429;28;20536;-73
2021/05/07 06:31:23;;;;;;;9.00;5.63;;;;;;;17.97;45.71;94960.28;5073556;28;20466;-71
2021/05/07 06:33:49;;;;;;;13.30;5.70;;;;;;;17.97;45.15;94954.97;5054794;28;20450;-67
2021/05/07 06:36:18;;;;;;;14.93;5.80;;;;;;;17.98;45.64;94969.78;5055719;28;20442;-71
2021/05/07 06:38:44;;;;;;;9.23;5.77;;;;;;;18.18;44.02;94967.47;5072419;28;20446;-68
2021/05/07 06:41:11;;;;;;;10.70;5.50;;;;;;;18.37;44.38;94972.63;5073531;28;20456;-78
2021/05/07 06:43:38;;;;;;;10.97;5.67;;;;;;;18.32;44.46;94959.44;5073844;28;20442;-75
2021/05/07 06:46:22;;;;;;;11.17;5.40;;;;;;;18.10;44.52;94960.22;5073768;28;20429;-72
2021/05/07 06:48:49;;;;;;;7.87;5.03;;;;;;;18.28;43.48;94958.50;5073912;28;20507;-66
2021/05/07 06:51:15;;;;;;;14.97;5.20;;;;;;;18.43;44.43;94952.09;5074080;28;20555;-74
2021/05/07 06:53:42;;;;;;;9.83;4.80;;;;;;;18.71;44.12;94932.25;5075921;28;20499;-68
2021/05/07 06:56:11;;;;;;;11.07;4.83;;;;;;;18.62;44.71;94945.47;5078858;28;20446;-69
2021/05/07 06:58:42;;;;;;;17.63;5.50;;;;;;;18.73;44.67;94936.16;5072815;28;20819;-70
2021/05/07 07:01:09;;;;;;;9.63;4.27;;;;;;;18.63;43.71;94931.09;5073572;28;20477;-78
2021/05/07 07:03:35;;;;;;;8.70;4.70;;;;;;;18.83;43.61;94941.22;5073192;28;20446;-66
2021/05/07 07:06:03;;;;;;;10.50;5.17;;;;;;;18.64;42.77;94938.00;5074181;28;20541;-67
2021/05/07 07:08:29;;;;;;;9.07;4.80;;;;;;;18.71;42.61;94925.06;5071853;28;21016;-71
2021/05/07 07:10:58;;;;;;;12.40;4.67;;;;;;;18.83;42.92;94927.94;5073722;28;20501;-71
2021/05/07 07:13:26;;;;;;;9.77;4.37;;;;;;;18.80;43.51;94920.59;5072541;28;20461;-71
2021/05/07 07:15:52;;;;;;;7.73;4.87;;;;;;;18.95;43.93;94933.47;5072540;28;20503;-69
2021/05/07 07:18:21;;;;;;;7.00;3.60;;;;;;;19.04;42.43;94925.53;5072061;28;20434;-71
2021/05/07 07:20:49;;;;;;;6.20;4.27;;;;;;;19.14;41.63;94936.66;5072710;28;20763;-70
2021/05/07 07:23:16;;;;;;;7.93;4.07;;;;;;;19.16;42.55;94931.03;5072062;28;20816;-70
2021/05/07 07:25:43;;;;;;;11.07;4.40;;;;;;;19.35;40.94;94920.97;5072422;28;20524;-72
2021/05/07 07:28:11;;;;;;;123.37;86.13;;;;;;;19.36;40.14;94911.88;5072701;28;20440;-75
2021/05/07 07:30:37;;;;;;;45.53;20.17;;;;;;;19.47;40.97;94917.72;5072499;28;20900;-68
2021/05/07 07:33:04;;;;;;;9.70;5.77;;;;;;;19.67;40.35;94898.53;5071676;28;20796;-74
2021/05/07 07:35:30;;;;;;;8.63;3.80;;;;;;;19.99;40.73;94914.00;5072117;28;20196;-72
2021/05/07 07:37:57;;;;;;;9.63;4.20;;;;;;;20.17;40.37;94902.28;5071122;28;20423;-69
2021/05/07 07:40:23;;;;;;;6.73;4.10;;;;;;;20.22;41.29;94896.78;5070906;28;21034;-66
2021/05/07 07:42:50;;;;;;;8.10;4.83;;;;;;;20.47;40.24;94888.00;5071675;28;20204;-65
2021/05/07 07:45:16;;;;;;;9.00;4.33;;;;;;;20.49;40.13;94890.34;5071992;28;20426;-69
2021/05/07 07:47:43;;;;;;;7.50;4.27;;;;;;;20.62;39.79;94882.16;5071175;28;20190;-67
2021/05/07 07:50:10;;;;;;;6.97;3.93;;;;;;;20.80;39.81;94870.34;5072011;28;20202;-73
2021/05/07 07:52:38;;;;;;;7.43;4.07;;;;;;;20.94;38.92;94870.13;5071591;28;20238;-69
2021/05/07 07:55:06;;;;;;;7.00;3.17;;;;;;;20.81;39.66;94874.56;5071744;28;20577;-71
2021/05/07 07:57:33;;;;;;;10.73;4.10;;;;;;;20.74;40.70;94871.63;5071600;28;20204;-66
2021/05/07 07:59:59;;;;;;;6.70;4.23;;;;;;;20.91;40.06;94860.88;5072579;28;20188;-69
2021/05/07 08:02:26;;;;;;;10.43;4.07;;;;;;;20.93;38.50;94853.34;5071839;28;20433;-67
2021/05/07 08:04:53;;;;;;;6.03;3.50;;;;;;;21.06;39.71;94852.38;5072103;28;20274;-68
2021/05/07 08:07:21;;;;;;;10.53;3.70;;;;;;;21.24;39.51;94854.97;5071387;28;20196;-69
2021/05/07 08:09:49;;;;;;;11.00;3.70;;;;;;;21.24;38.49;94862.97;5071823;28;20430;-68
2021/05/07 08:12:15;;;;;;;9.87;3.47;;;;;;;21.27;37.66;94856.97;5071611;28;20630;-67
2021/05/07 08:14:42;;;;;;;9.60;3.63;;;;;;;21.36;38.11;94853.16;5072185;28;20207;-67
2021/05/07 08:17:09;;;;;;;6.73;3.70;;;;;;;21.30;38.18;94853.66;5071797;28;20193;-70
2021/05/07 08:19:41;;;;;;;10.53;2.87;;;;;;;21.49;37.61;94843.34;5076349;28;20203;-71
2021/05/07 08:22:08;;;;;;;6.17;2.70;;;;;;;21.63;37.82;94844.66;5072445;28;20253;-64
2021/05/07 08:24:34;;;;;;;5.53;2.77;;;;;;;21.77;37.85;94845.16;5071715;28;20793;-65
2021/05/07 08:27:01;;;;;;;6.93;2.90;;;;;;;21.85;37.57;94848.91;5053208;28;20203;-67
2021/05/07 08:29:27;;;;;;;10.50;2.77;;;;;;;22.06;36.61;94845.09;5071221;28;20368;-68
2021/05/07 08:31:53;;;;;;;6.67;3.20;;;;;;;21.99;36.89;94836.06;5071130;28;20705;-68
2021/05/07 08:34:21;;;;;;;8.30;2.80;;;;;;;22.14;38.03;94838.13;5053277;28;20196;-68
2021/05/07 08:36:49;;;;;;;11.10;2.83;;;;;;;22.15;37.57;94840.44;5071572;28;20194;-66
2021/05/07 08:39:15;;;;;;;6.13;2.70;;;;;;;22.22;36.44;94834.59;5071184;28;20279;-68
2021/05/07 08:41:43;;;;;;;6.43;2.83;;;;;;;22.19;37.17;94824.56;5071051;28;20172;-68
2021/05/07 08:44:10;;;;;;;6.27;2.90;;;;;;;22.54;36.53;94831.09;5070489;28;20199;-70
2021/05/07 08:46:40;;;;;;;6.73;3.17;;;;;;;22.64;35.64;94822.69;5071247;28;20646;-65
2021/05/07 08:49:15;;;;;;;6.03;3.13;;;;;;;22.76;35.87;94825.38;5070948;28;20204;-67
2021/05/07 08:51:41;;;;;;;11.77;3.83;;;;;;;22.75;35.80;94821.16;5071273;28;20250;-69
2021/05/07 08:54:08;;;;;;;11.60;3.63;;;;;;;22.47;36.12;94836.22;5070333;28;20189;-67
2021/05/07 08:56:36;;;;;;;9.37;3.13;;;;;;;22.70;34.08;94825.94;5071037;28;20199;-68
2021/05/07 08:59:03;;;;;;;12.70;3.40;;;;;;;22.62;35.55;94822.25;5070443;28;20270;-70
2021/05/07 09:01:50;;;;;;;4.63;2.53;;;;;;;22.52;35.53;94806.63;5070727;28;20199;-68
2021/05/07 09:04:19;;;;;;;9.50;3.10;;;;;;;22.97;35.01;94807.31;5070987;28;20743;-66
2021/05/07 09:06:52;;;;;;;12.17;2.90;;;;;;;23.10;35.16;94794.75;5070940;28;20192;-66
2021/05/07 09:09:29;;;;;;;10.07;3.60;;;;;;;23.08;35.31;94803.09;5070437;28;20239;-67
2021/05/07 09:12:02;;;;;;;8.33;2.70;;;;;;;23.46;35.56;94797.38;5070271;28;20725;-67
2021/05/07 09:14:29;;;;;;;14.43;2.93;;;;;;;23.66;36.06;94788.41;5070587;28;20204;-67
2021/05/07 09:17:20;;;;;;;12.13;3.27;;;;;;;23.64;34.28;94787.19;5070223;28;20195;-70
2021/05/07 09:19:48;;;;;;;12.10;3.10;;;;;;;23.82;34.78;94791.91;5070543;28;20204;-64
2021/05/07 09:22:26;;;;;;;10.40;2.80;;;;;;;23.88;34.69;94789.78;5070698;28;20191;-72
2021/05/07 09:25:09;;;;;;;11.30;2.90;;;;;;;23.72;34.97;94789.72;5052693;28;20203;-69
2021/05/07 09:27:37;;;;;;;6.87;2.63;;;;;;;23.85;34.16;94783.19;5070023;28;20204;-73
2021/05/07 09:30:09;;;;;;;15.17;3.57;;;;;;;23.74;33.73;94784.81;5070177;28;20194;-67
2021/05/07 09:32:35;;;;;;;12.37;3.67;;;;;;;23.62;33.19;94778.72;5069988;28;20211;-70
2021/05/07 09:35:09;;;;;;;10.50;2.47;;;;;;;23.79;33.34;94765.06;5070575;28;20195;-69
2021/05/07 09:37:37;;;;;;;7.33;2.87;;;;;;;23.82;32.65;94757.13;5069910;28;20252;-66
2021/05/07 09:40:20;;;;;;;10.63;2.73;;;;;;;23.75;33.20;94748.91;5070294;28;20191;-68
2021/05/07 09:42:47;;;;;;;5.63;3.00;;;;;;;23.89;32.38;94756.53;5070632;28;20657;-68
2021/05/07 09:45:25;;;;;;;9.30;2.53;;;;;;;24.21;33.44;94757.41;5076038;28;20188;-68
2021/05/07 09:47:53;;;;;;;7.70;2.73;;;;;;;24.35;33.94;94753.19;5069956;28;20195;-67
2021/05/07 09:50:31;;;;;;;4.77;2.33;;;;;;;24.19;31.92;94744.38;5070514;28;20294;-66
2021/05/07 09:53:08;;;;;;;9.80;2.60;;;;;;;24.61;31.94;94731.22;5069776;28;20223;-69
2021/05/07 09:55:34;;;;;;;10.87;2.80;;;;;;;24.62;32.26;94722.84;5070328;28;20196;-71
2021/05/07 09:58:02;;;;;;;12.17;2.50;;;;;;;24.99;32.49;94718.75;5051844;28;20718;-67
2021/05/07 10:00:29;;;;;;;6.57;2.30;;;;;;;25.04;29.96;94704.28;5070393;28;20207;-70
2021/05/07 10:02:56;;;;;;;6.07;2.37;;;;;;;25.06;31.68;94721.59;5071337;28;20199;-69
2021/05/07 10:05:27;;;;;;;4.47;2.33;;;;;;;25.23;30.59;94717.72;5075774;28;20246;-70
2021/05/07 10:07:57;;;;;;;5.20;2.50;;;;;;;24.91;31.45;94722.38;5075298;28;20199;-65
2021/05/07 10:10:30;;;;;;;9.07;2.97;;;;;;;24.71;30.48;94717.31;5074796;28;20724;-69
2021/05/07 10:12:59;;;;;;;12.13;2.80;;;;;;;24.44;31.60;94702.13;5074720;28;20772;-68
2021/05/07 10:15:37;;;;;;;9.53;2.60;;;;;;;24.79;30.63;94711.00;5073978;28;20204;-67
2021/05/07 10:18:07;;;;;;;10.63;2.50;;;;;;;24.86;29.20;94706.59;5073488;28;20198;-67
2021/05/07 10:20:39;;;;;;;5.07;2.57;;;;;;;25.33;29.33;94695.69;5073911;28;20195;-68
2021/05/07 10:23:18;;;;;;;4.33;2.20;;;;;;;25.41;27.36;94710.06;5073632;28;20689;-67
2021/05/07 10:25:54;;;;;;;5.93;2.30;;;;;;;25.56;27.10;94706.53;5073866;28;20183;-72
2021/05/07 10:28:21;;;;;;;8.73;2.40;;;;;;;25.85;28.38;94708.63;5073284;28;20248;-71
2021/05/07 10:30:48;;;;;;;6.93;2.30;;;;;;;25.82;27.97;94707.41;5073709;28;20195;-70
2021/05/07 10:33:18;;;;;;;7.77;2.23;;;;;;;25.79;26.40;94707.34;5073352;28;20219;-68
2021/05/07 10:35:54;;;;;;;4.00;1.50;;;;;;;26.00;25.45;94692.41;5073513;28;20670;-64
2021/05/07 10:38:22;;;;;;;12.17;1.80;;;;;;;26.56;25.40;94673.81;5073130;28;20218;-72
2021/05/07 10:41:08;;;;;;;4.97;2.03;;;;;;;26.03;24.04;94688.25;5073236;28;20199;-69
2021/05/07 10:43:36;;;;;;;3.37;1.70;;;;;;;25.75;24.76;94691.19;5073121;28;20252;-71
2021/05/07 10:46:03;;;;;;;2.97;1.30;;;;;;;26.01;25.92;94674.41;5073624;28;20607;-70
2021/05/07 10:48:29;;;;;;;6.17;1.50;;;;;;;26.04;25.14;94652.22;5072847;28;20203;-66
2021/05/07 10:51:12;;;;;;;3.70;1.90;;;;;;;25.54;24.55;94676.59;5073333;28;20191;-67
2021/05/07 10:53:40;;;;;;;3.50;1.37;;;;;;;25.34;22.54;94677.72;5073182;28;20278;-65
2021/05/07 10:56:24;;;;;;;4.47;1.63;;;;;;;26.05;21.58;94672.59;5073531;28;20207;-69
2021/05/07 10:58:52;;;;;;;2.10;1.10;;;;;;;26.14;21.61;94670.44;5072839;28;20191;-72
2021/05/07 11:01:27;;;;;;;7.43;1.60;;;;;;;26.48;21.63;94669.44;5073059;28;20627;-70
2021/05/07 11:04:00;;;;;;;6.17;1.73;;;;;;;26.74;22.46;94653.38;5072982;28;20191;-71
2021/05/07 11:06:31;;;;;;;8.60;1.53;;;;;;;27.18;20.54;94660.84;5073237;28;20188;-69
2021/05/07 11:09:17;;;;;;;2.57;1.30;;;;;;;26.34;21.44;94665.75;5079927;28;20726;-71
2021/05/07 11:11:45;;;;;;;3.93;1.30;;;;;;;26.03;21.57;94647.97;5072977;28;20219;-70
2021/05/07 11:14:38;;;;;;;5.33;1.33;;;;;;;26.32;22.36;94650.00;5072893;28;20681;-67
2021/05/07 11:17:15;;;;;;;3.80;1.10;;;;;;;26.08;21.10;94645.00;5070086;28;20712;-68
2021/05/07 11:19:43;;;;;;;4.97;1.10;;;;;;;26.56;21.07;94638.09;5073118;28;20217;-68
2021/05/07 11:22:10;;;;;;;3.30;1.17;;;;;;;26.99;20.35;94632.16;5073246;28;20290;-70
2021/05/07 11:24:47;;;;;;;5.00;1.00;;;;;;;26.85;19.10;94627.41;5072759;28;20212;-68
2021/05/07 11:27:23;;;;;;;2.13;1.27;;;;;;;26.52;19.81;94626.50;5072304;28;20227;-65
2021/05/07 11:29:53;;;;;;;4.53;1.40;;;;;;;26.85;20.29;94630.09;5072742;28;20182;-66
2021/05/07 11:32:23;;;;;;;3.03;0.90;;;;;;;27.31;19.68;94624.53;5072182;28;20212;-68
2021/05/07 11:34:49;;;;;;;2.43;1.30;;;;;;;26.72;20.18;94620.69;5072710;28;20184;-72
2021/05/07 11:37:16;;;;;;;5.27;1.20;;;;;;;26.45;19.59;94604.91;5072332;28;20198;-67